Impacts TAF Board INFO
FOR SITUATIONAL AWARENESS. NOT TO BE USED FOR FLIGHT PLANNING PURPOSES.
IDs:

KMCO - Orlando Intl, FL, US

Issued at 2320 UTC 19 Feb 2018
Updated at 0134 UTC 20 Feb 2018
Potential Impact None Slight Moderate High
Time0053Z 20/02Z 20/03Z 20/04Z 20/05Z 20/06Z 20/07Z 20/08Z 20/09Z 20/10Z 20/11Z 20/12Z 20/13Z 20/14Z>>
Type OBS PRVL PRVL PRVL PRVL PRVL PRVL PRVL PRVL PRVL PRVL PRVL PRVL PRVL
VIS 10 >6 >6 >6 >6 >6 >6 >6 >6 >6 >6 >6 >6 >6
CIG -- -- -- -- -- -- -- -- -- -- -- -- -- --
Cover FEW FEW FEW FEW FEW SCT SCT SCT SCT SCT SCT SCT SCT SCT
FltCat VFR VFR VFR VFR VFR VFR VFR VFR VFR VFR VFR VFR VFR VFR
WX -- -- -- -- -- -- -- -- -- -- -- -- -- --
WDir 100 90 90 90 90 70 70 70 70 70 70 70 70 70
WSpd 10 8 8 8 8 5 5 5 5 5 5 5 5 5
WGst -- -- -- -- -- -- -- -- -- -- -- -- -- --

Raw TAF
KMCO 192320Z 2000/2106 09008KT P6SM FEW025 FEW050
  FM200600 07005KT P6SM SCT015 SCT040
  FM201500 12011KT P6SM SCT030
  FM202000 11011KT P6SM SCT035 BKN050


Raw METAR
KMCO 200053Z 10010KT 10SM FEW040 FEW060 23/21 A3029 RMK AO2 SLP254 T02280206
KMCO 192353Z 10011KT 10SM FEW045 FEW070 23/20 A3028 RMK AO2 SLP250 T02330200 10289 20233 51007
KMCO 192253Z 09014KT 10SM FEW045 SCT070 24/19 A3027 RMK AO2 SLP249 T02440194

METAR Board
Radar Display
Forecast Discussion

FOR SITUATIONAL AWARENESS. NOT TO BE USED FOR FLIGHT PLANNING PURPOSES.